Time;durP1;ratioP1;P1;durP2;ratioP2;P2;SDS_P1;SDS_P2;PMS_P1;PMS_P2;Temp;Humidity;BMP_temperature;BMP_pressure;BME280_temperature;BME280_humidity;BME280_pressure;Samples;Min_cycle;Max_cycle;Signal;HPM_P1;HPM_P2
2023/06/19 00:01:54;;;;;;;5.38;4.78;;;;;;;17.01;100.00;101176.91;5044872;28;20219;-49
2023/06/19 00:04:20;;;;;;;6.13;5.18;;;;;;;16.95;100.00;101174.59;5070835;28;20202;-51
2023/06/19 00:06:45;;;;;;;6.35;5.75;;;;;;;16.83;100.00;101177.03;5071135;28;20183;-47
2023/06/19 00:09:11;;;;;;;5.32;4.82;;;;;;;16.81;100.00;101170.84;5071644;28;20190;-48
2023/06/19 00:11:36;;;;;;;6.05;5.32;;;;;;;16.83;100.00;101174.31;5070915;28;20660;-51
2023/06/19 00:14:02;;;;;;;6.18;5.32;;;;;;;16.74;100.00;101179.38;5070830;28;20294;-49
2023/06/19 00:16:28;;;;;;;6.80;5.75;;;;;;;16.78;100.00;101176.41;5071222;28;20186;-49
2023/06/19 00:18:55;;;;;;;8.43;5.80;;;;;;;16.77;100.00;101180.09;5070860;28;20179;-52
2023/06/19 00:21:25;;;;;;;6.05;5.22;;;;;;;16.65;100.00;101168.13;5071086;28;20193;-48
2023/06/19 00:23:51;;;;;;;5.55;4.82;;;;;;;16.55;100.00;101166.94;5070684;28;20189;-48
2023/06/19 00:26:17;;;;;;;6.90;5.32;;;;;;;16.69;100.00;101172.41;5070776;28;20167;-50
2023/06/19 00:28:45;;;;;;;5.80;5.13;;;;;;;16.74;100.00;101166.72;5070529;28;20700;-49
2023/06/19 00:31:13;;;;;;;5.93;5.40;;;;;;;16.78;100.00;101168.28;5070672;28;20228;-49
2023/06/19 00:33:39;;;;;;;6.38;5.60;;;;;;;16.68;100.00;101161.66;5068128;28;20296;-50
2023/06/19 00:36:12;;;;;;;5.60;5.10;;;;;;;16.67;100.00;101160.81;5070761;28;20262;-50
2023/06/19 00:38:41;;;;;;;6.35;5.60;;;;;;;16.53;100.00;101149.03;5069191;28;20174;-48
2023/06/19 00:41:07;;;;;;;8.32;5.63;;;;;;;16.51;100.00;101149.16;5070458;28;20176;-53
2023/06/19 00:43:34;;;;;;;6.50;5.25;;;;;;;16.39;100.00;101150.69;5068771;28;20472;-49
2023/06/19 00:46:00;;;;;;;7.22;5.30;;;;;;;16.28;100.00;101150.44;5069072;28;20600;-51
2023/06/19 00:48:31;;;;;;;5.75;5.25;;;;;;;16.28;100.00;101143.19;5070257;28;20174;-50
2023/06/19 00:50:57;;;;;;;6.82;5.28;;;;;;;16.25;100.00;101140.69;5070237;28;20159;-48
2023/06/19 00:53:24;;;;;;;6.38;5.28;;;;;;;16.17;100.00;101153.75;5068771;28;20229;-49
2023/06/19 00:55:54;;;;;;;6.45;5.65;;;;;;;16.06;100.00;101151.66;5068830;28;20174;-49
2023/06/19 00:58:21;;;;;;;6.15;5.65;;;;;;;15.96;100.00;101157.66;5068613;28;20271;-47
2023/06/19 01:00:49;;;;;;;6.93;5.85;;;;;;;15.83;100.00;101146.66;5068860;28;20182;-51
2023/06/19 01:03:15;;;;;;;6.40;5.65;;;;;;;15.82;100.00;101153.03;5070153;28;20202;-49
2023/06/19 01:05:41;;;;;;;6.45;5.85;;;;;;;15.91;100.00;101140.84;5051798;28;20190;-50
2023/06/19 01:08:33;;;;;;;5.93;5.35;;;;;;;15.94;100.00;101141.56;5069896;28;20175;-48
2023/06/19 01:11:02;;;;;;;6.97;5.68;;;;;;;16.06;100.00;101146.25;5068570;28;20186;-49
2023/06/19 01:13:50;;;;;;;6.03;5.43;;;;;;;16.22;100.00;101135.47;5068390;28;20229;-51
2023/06/19 01:16:17;;;;;;;6.47;5.75;;;;;;;16.20;100.00;101131.97;5068402;28;20261;-47
2023/06/19 01:18:43;;;;;;;7.53;5.68;;;;;;;16.29;100.00;101130.59;5068220;28;20178;-50
2023/06/19 01:21:19;;;;;;;5.32;4.82;;;;;;;16.26;100.00;101119.91;5069786;28;20163;-49
2023/06/19 01:23:45;;;;;;;6.00;5.40;;;;;;;16.24;100.00;101121.84;5068310;28;20319;-49
2023/06/19 01:26:11;;;;;;;6.10;5.50;;;;;;;16.28;100.00;101118.00;5069851;28;20158;-50
2023/06/19 01:28:40;;;;;;;5.95;5.35;;;;;;;16.23;100.00;101112.88;5069676;28;20251;-49
2023/06/19 01:31:12;;;;;;;5.55;5.05;;;;;;;16.16;100.00;101119.59;5068026;28;20620;-50
2023/06/19 01:33:42;;;;;;;6.20;5.60;;;;;;;16.10;100.00;101106.41;5068016;28;20198;-48
2023/06/19 01:36:08;;;;;;;5.88;5.07;;;;;;;16.21;100.00;101097.69;5069485;28;20171;-48
2023/06/19 01:38:36;;;;;;;5.65;5.15;;;;;;;16.15;100.00;101101.59;5068275;28;20175;-49
2023/06/19 01:41:03;;;;;;;6.35;5.45;;;;;;;16.22;100.00;101092.22;5068050;28;20179;-50
2023/06/19 01:43:31;;;;;;;5.85;5.25;;;;;;;16.25;100.00;101088.44;5068947;28;20194;-49
2023/06/19 01:45:57;;;;;;;5.55;5.05;;;;;;;16.21;100.00;101090.44;5067853;28;20171;-48
2023/06/19 01:48:23;;;;;;;6.38;5.50;;;;;;;16.21;100.00;101086.88;5069345;28;20212;-49
2023/06/19 01:50:48;;;;;;;6.95;5.50;;;;;;;16.13;100.00;101087.31;5068060;28;20257;-49
2023/06/19 01:53:15;;;;;;;6.93;5.90;;;;;;;16.15;100.00;101074.56;5067680;28;20301;-50
2023/06/19 01:55:40;;;;;;;5.88;5.20;;;;;;;16.14;100.00;101067.44;5068988;28;20173;-51
2023/06/19 01:58:06;;;;;;;5.95;5.38;;;;;;;16.09;100.00;101074.06;5066661;28;20615;-52
2023/06/19 02:00:35;;;;;;;5.93;5.03;;;;;;;16.05;100.00;101068.84;5067500;28;20530;-51
2023/06/19 02:03:01;;;;;;;5.60;5.10;;;;;;;16.00;100.00;101064.66;5067665;28;20194;-49
2023/06/19 02:05:29;;;;;;;6.00;5.38;;;;;;;16.02;100.00;101055.50;5069220;28;20183;-49
2023/06/19 02:07:54;;;;;;;5.68;4.80;;;;;;;16.08;100.00;101058.81;5067694;28;20174;-48
2023/06/19 02:10:20;;;;;;;6.22;5.10;;;;;;;16.09;100.00;101057.84;5068983;28;20248;-50
2023/06/19 02:12:45;;;;;;;5.95;5.40;;;;;;;16.02;100.00;101051.91;5068649;28;20206;-51
2023/06/19 02:15:11;;;;;;;6.05;5.45;;;;;;;16.01;100.00;101061.00;5069007;28;20265;-49
2023/06/19 02:17:36;;;;;;;5.90;5.10;;;;;;;16.08;100.00;101056.13;5067377;28;20186;-48
2023/06/19 02:20:05;;;;;;;5.35;4.85;;;;;;;16.03;100.00;101057.25;5067533;28;20170;-47
2023/06/19 02:22:31;;;;;;;7.90;5.65;;;;;;;16.04;100.00;101058.13;5067490;28;20274;-48
2023/06/19 02:24:56;;;;;;;5.57;5.07;;;;;;;16.05;100.00;101057.16;5067505;28;20195;-51
2023/06/19 02:27:21;;;;;;;5.00;4.60;;;;;;;16.05;100.00;101047.22;5066960;28;20244;-49
2023/06/19 02:29:47;;;;;;;6.50;5.90;;;;;;;15.90;100.00;101060.75;5066785;28;20261;-48
2023/06/19 02:32:13;;;;;;;5.57;5.05;;;;;;;15.91;100.00;101051.66;5066896;28;20680;-50
2023/06/19 02:34:38;;;;;;;6.15;5.38;;;;;;;15.89;100.00;101049.03;5068426;28;20167;-47
2023/06/19 02:37:05;;;;;;;8.27;5.28;;;;;;;15.89;100.00;101061.69;5068182;28;20170;-49
2023/06/19 02:39:30;;;;;;;6.22;5.00;;;;;;;15.91;100.00;101055.22;5067058;28;20217;-49
2023/06/19 02:41:56;;;;;;;6.63;5.32;;;;;;;15.94;100.00;101057.78;5066696;28;20171;-48
2023/06/19 02:44:21;;;;;;;5.65;5.15;;;;;;;16.02;100.00;101057.31;5068295;28;20195;-49
2023/06/19 02:46:47;;;;;;;5.63;5.10;;;;;;;16.09;100.00;101057.84;5066902;28;20316;-49
2023/06/19 02:49:12;;;;;;;6.20;5.60;;;;;;;16.17;100.00;101042.06;5066812;28;20171;-49
2023/06/19 02:51:37;;;;;;;5.97;4.70;;;;;;;16.21;100.00;101057.16;5068168;28;20205;-48
2023/06/19 02:54:03;;;;;;;5.97;5.38;;;;;;;16.21;100.00;101051.75;5083660;28;20582;-48
2023/06/19 02:56:29;;;;;;;5.13;4.68;;;;;;;16.27;100.00;101044.13;5069936;28;20262;-47
2023/06/19 02:58:55;;;;;;;5.78;4.82;;;;;;;16.31;100.00;101047.53;5070555;28;20633;-50
2023/06/19 03:01:21;;;;;;;5.57;5.03;;;;;;;16.35;100.00;101038.25;5071859;28;20179;-48
2023/06/19 03:03:47;;;;;;;9.20;5.53;;;;;;;16.39;100.00;101036.25;5070609;28;20789;-48
2023/06/19 03:06:13;;;;;;;5.93;5.32;;;;;;;16.32;100.00;101049.28;5072209;28;20178;-51
2023/06/19 03:08:39;;;;;;;5.93;5.32;;;;;;;16.31;100.00;101034.03;5070502;28;20203;-49
2023/06/19 03:11:05;;;;;;;6.13;5.53;;;;;;;16.44;100.00;101037.75;5070413;28;20190;-48
2023/06/19 03:13:52;;;;;;;5.68;5.05;;;;;;;16.52;100.00;101047.22;5071765;28;20641;-47
2023/06/19 03:16:19;;;;;;;5.68;4.97;;;;;;;16.58;100.00;101045.03;5070599;28;20171;-48
2023/06/19 03:18:46;;;;;;;5.97;5.40;;;;;;;16.67;100.00;101046.31;5070352;28;20653;-47
2023/06/19 03:21:13;;;;;;;5.22;4.72;;;;;;;16.79;100.00;101039.25;5070659;28;20189;-50
2023/06/19 03:23:41;;;;;;;5.60;4.97;;;;;;;16.85;100.00;101041.63;5071741;28;20675;-49
2023/06/19 03:26:10;;;;;;;5.20;4.38;;;;;;;16.86;100.00;101041.56;5070121;28;20182;-51
2023/06/19 03:28:38;;;;;;;6.35;5.00;;;;;;;16.96;100.00;101046.41;5070382;28;20178;-48
2023/06/19 03:31:06;;;;;;;6.20;5.63;;;;;;;16.92;100.00;101044.84;5070458;28;20261;-48
2023/06/19 03:33:32;;;;;;;6.28;5.63;;;;;;;16.97;100.00;101051.72;5071813;28;20277;-49
2023/06/19 03:35:57;;;;;;;6.28;5.68;;;;;;;17.04;100.00;101052.22;5071902;28;20159;-51
2023/06/19 03:38:36;;;;;;;7.15;5.25;;;;;;;17.10;100.00;101049.13;5070190;28;20193;-49
2023/06/19 03:41:02;;;;;;;6.32;5.18;;;;;;;17.18;100.00;101044.09;5070422;28;20183;-51
2023/06/19 03:43:27;;;;;;;6.55;5.07;;;;;;;17.32;100.00;101039.63;5070250;28;20312;-52
2023/06/19 03:45:53;;;;;;;6.32;5.40;;;;;;;17.37;100.00;101029.41;5087168;28;20210;-48
2023/06/19 03:48:19;;;;;;;6.20;5.10;;;;;;;17.37;100.00;101035.69;5070357;28;20179;-49
2023/06/19 03:50:45;;;;;;;9.55;5.68;;;;;;;17.34;100.00;101029.56;5086978;28;20186;-49
2023/06/19 03:53:10;;;;;;;6.20;5.60;;;;;;;17.37;100.00;101027.56;5070044;28;20242;-50
2023/06/19 03:55:36;;;;;;;7.60;5.60;;;;;;;17.32;100.00;101027.00;5069824;28;20175;-48
2023/06/19 03:58:01;;;;;;;6.63;5.22;;;;;;;17.40;100.00;101021.06;5070868;28;20178;-49
2023/06/19 04:00:27;;;;;;;7.15;5.20;;;;;;;17.46;100.00;101023.41;5069826;28;20183;-49
2023/06/19 04:02:52;;;;;;;7.30;5.18;;;;;;;17.44;100.00;101028.03;5069884;28;20740;-50
2023/06/19 04:05:19;;;;;;;5.50;5.00;;;;;;;17.45;100.00;101021.66;5070075;28;20186;-48
2023/06/19 04:07:45;;;;;;;5.60;5.13;;;;;;;17.46;99.81;101020.69;5068752;28;20215;-50
2023/06/19 04:10:14;;;;;;;5.93;5.43;;;;;;;17.55;99.76;101019.22;5069505;28;20261;-52
2023/06/19 04:12:40;;;;;;;7.13;5.35;;;;;;;17.66;99.27;101013.97;5068873;28;20395;-50
2023/06/19 04:15:07;;;;;;;7.65;5.72;;;;;;;17.65;98.50;101018.53;5068952;28;20175;-50
2023/06/19 04:17:33;;;;;;;6.00;4.80;;;;;;;17.69;98.23;101011.94;5069968;28;20185;-48
2023/06/19 04:19:58;;;;;;;7.65;5.85;;;;;;;17.75;97.89;101004.38;5070424;28;20555;-49
2023/06/19 04:22:24;;;;;;;7.15;5.30;;;;;;;17.73;97.19;101011.72;5069579;28;20202;-47
2023/06/19 04:24:49;;;;;;;7.00;4.93;;;;;;;17.78;97.53;101010.47;5070670;28;20185;-49
2023/06/19 04:27:14;;;;;;;7.60;5.13;;;;;;;17.83;96.95;101002.06;5069805;28;20195;-50
2023/06/19 04:29:40;;;;;;;5.45;4.95;;;;;;;17.81;96.81;101001.28;5070885;28;20182;-48
2023/06/19 04:32:11;;;;;;;7.03;5.13;;;;;;;17.78;96.74;101004.19;5069773;28;20209;-47
2023/06/19 04:34:38;;;;;;;5.72;5.13;;;;;;;17.81;97.28;100999.41;5070711;28;20162;-49
2023/06/19 04:37:03;;;;;;;7.28;5.47;;;;;;;17.79;97.27;101001.34;5070485;28;20179;-51
2023/06/19 04:39:29;;;;;;;7.38;5.25;;;;;;;17.88;97.52;101002.63;5070497;28;20174;-48
2023/06/19 04:41:54;;;;;;;6.43;5.75;;;;;;;17.87;98.06;101009.03;5070695;28;20174;-47
2023/06/19 04:44:20;;;;;;;6.50;5.90;;;;;;;17.86;98.08;101016.31;5070377;28;20206;-51
2023/06/19 04:46:46;;;;;;;6.45;5.38;;;;;;;17.92;98.24;101015.88;5070657;28;20293;-47
2023/06/19 04:49:12;;;;;;;5.93;5.43;;;;;;;18.03;97.81;101009.75;5070671;28;20755;-47
2023/06/19 04:51:38;;;;;;;6.13;5.43;;;;;;;18.01;98.05;101000.84;5070156;28;20193;-48
2023/06/19 04:54:04;;;;;;;6.20;5.25;;;;;;;18.08;98.14;101015.75;5070071;28;20211;-47
2023/06/19 04:56:29;;;;;;;7.63;5.20;;;;;;;18.08;98.19;101004.91;5070622;28;20171;-46
2023/06/19 04:58:59;;;;;;;5.78;5.20;;;;;;;18.15;98.30;101013.50;5070492;28;20300;-49
2023/06/19 05:01:30;;;;;;;7.45;5.20;;;;;;;18.25;97.70;101005.59;5069982;28;20605;-47
2023/06/19 05:03:56;;;;;;;6.95;5.30;;;;;;;18.19;97.35;101011.41;5069950;28;20521;-48
2023/06/19 05:06:24;;;;;;;8.15;5.53;;;;;;;18.25;97.42;101008.31;5070195;28;20640;-49
2023/06/19 05:08:50;;;;;;;7.60;5.65;;;;;;;18.31;97.13;101000.63;5069635;28;20633;-47
2023/06/19 05:11:15;;;;;;;6.07;5.47;;;;;;;18.30;97.07;101000.72;5070147;28;20277;-47
2023/06/19 05:13:41;;;;;;;6.65;5.95;;;;;;;18.35;96.86;101008.56;5068578;28;20205;-47
2023/06/19 05:16:07;;;;;;;5.93;5.40;;;;;;;18.31;97.38;101002.47;5069885;28;20163;-47
2023/06/19 05:18:32;;;;;;;6.28;5.78;;;;;;;18.40;97.40;101009.13;5069680;28;20194;-49
2023/06/19 05:20:58;;;;;;;6.63;5.82;;;;;;;18.42;97.43;101010.75;5069722;28;20182;-45
2023/06/19 05:23:23;;;;;;;5.45;4.93;;;;;;;18.35;97.09;101005.84;5070085;28;20198;-47
2023/06/19 05:25:49;;;;;;;6.72;5.35;;;;;;;18.48;96.74;101009.47;5069603;28;20178;-50
2023/06/19 05:28:14;;;;;;;7.63;5.60;;;;;;;18.44;96.38;101006.09;5069664;28;20256;-46
2023/06/19 05:30:39;;;;;;;6.15;5.43;;;;;;;18.48;96.04;101002.19;5069591;28;20190;-47
2023/06/19 05:33:05;;;;;;;7.20;5.95;;;;;;;18.41;95.78;100999.97;5069394;28;20699;-46
2023/06/19 05:35:31;;;;;;;7.15;5.78;;;;;;;18.56;96.24;101003.50;5069711;28;20182;-46
2023/06/19 05:37:57;;;;;;;5.85;5.25;;;;;;;18.49;95.81;101001.19;5069072;28;20166;-46
2023/06/19 05:40:23;;;;;;;6.22;5.72;;;;;;;18.59;95.31;101003.31;5068067;28;20178;-44
2023/06/19 05:42:48;;;;;;;5.95;5.45;;;;;;;18.50;95.20;100992.09;5069013;28;20214;-47
2023/06/19 05:45:14;;;;;;;6.45;5.80;;;;;;;18.46;95.05;100990.56;5069311;28;20174;-46
2023/06/19 05:47:39;;;;;;;5.72;5.03;;;;;;;18.45;95.20;100994.25;5069382;28;20174;-45
2023/06/19 05:50:05;;;;;;;5.93;5.28;;;;;;;18.49;94.73;100995.78;5069025;28;20186;-46
2023/06/19 05:52:31;;;;;;;6.00;5.40;;;;;;;18.52;94.80;100990.16;5068745;28;20260;-47
2023/06/19 05:54:58;;;;;;;5.90;5.40;;;;;;;18.44;94.84;100997.94;5066476;28;20700;-46
2023/06/19 05:57:23;;;;;;;7.60;5.68;;;;;;;18.41;94.30;101000.88;5063120;28;20175;-49
2023/06/19 05:59:50;;;;;;;6.30;5.32;;;;;;;18.45;94.06;100996.94;5056365;22;20535;-42
2023/06/19 06:02:16;;;;;;;5.55;5.05;;;;;;;18.47;94.11;100992.28;4993026;28;20204;-41
2023/06/19 06:04:42;;;;;;;7.22;5.68;;;;;;;18.54;93.42;101006.31;4996992;28;20231;-42
2023/06/19 06:07:08;;;;;;;6.30;5.70;;;;;;;18.55;92.75;100994.50;4994320;28;20185;-41
2023/06/19 06:09:34;;;;;;;7.00;5.97;;;;;;;18.68;92.00;100998.09;4997638;28;20211;-41
2023/06/19 06:12:00;;;;;;;7.03;5.72;;;;;;;18.69;91.70;100997.13;4998720;28;20208;-43
2023/06/19 06:14:26;;;;;;;7.07;5.85;;;;;;;18.72;91.25;100993.31;4997738;28;21252;-44
2023/06/19 06:16:52;;;;;;;6.07;5.47;;;;;;;18.68;91.14;100989.94;4996962;28;20184;-43
2023/06/19 06:19:22;;;;;;;6.03;5.43;;;;;;;18.74;91.06;100997.66;4993025;28;20232;-43
2023/06/19 06:21:48;;;;;;;6.07;5.57;;;;;;;18.74;90.64;100994.09;4993340;28;20191;-43
2023/06/19 06:24:14;;;;;;;6.03;5.53;;;;;;;18.75;90.59;100993.09;4996004;28;20248;-42
2023/06/19 06:26:39;;;;;;;7.47;5.85;;;;;;;18.79;90.52;100994.66;4995128;28;20278;-41
2023/06/19 06:29:05;;;;;;;5.75;5.13;;;;;;;18.85;90.44;100996.94;4997457;28;20200;-42
2023/06/19 06:31:30;;;;;;;6.97;6.28;;;;;;;18.81;89.69;100995.44;4998490;28;20208;-44
2023/06/19 06:33:55;;;;;;;7.20;5.82;;;;;;;18.98;89.88;100986.09;4997591;28;20208;-41
2023/06/19 06:36:21;;;;;;;6.30;5.70;;;;;;;18.86;89.73;100997.81;4994154;28;20173;-43
2023/06/19 06:38:46;;;;;;;7.07;6.15;;;;;;;18.86;89.42;100987.81;4997511;28;20595;-41
2023/06/19 06:41:12;;;;;;;6.22;5.72;;;;;;;18.89;89.63;100994.88;4993803;28;20663;-41
2023/06/19 06:43:38;;;;;;;7.20;6.03;;;;;;;18.91;89.26;100987.47;4995374;28;20258;-42
2023/06/19 06:46:04;;;;;;;5.70;5.13;;;;;;;18.98;89.43;100985.19;4994622;28;20569;-42
2023/06/19 06:48:30;;;;;;;6.40;5.80;;;;;;;18.96;89.27;100985.34;4998596;28;20182;-42
2023/06/19 06:51:00;;;;;;;8.85;5.63;;;;;;;18.96;89.44;100992.59;4994935;28;20193;-42
2023/06/19 07:00:05;;;;;;;6.25;5.65;;;;;;;18.97;89.64;100988.91;5697381;23;20227;-42
2023/06/19 07:02:30;;;;;;;6.53;5.93;;;;;;;18.96;90.00;100982.63;5033358;28;20218;-41
2023/06/19 07:04:56;;;;;;;8.10;6.30;;;;;;;18.92;90.52;100983.81;5041643;28;20179;-43
2023/06/19 07:07:21;;;;;;;7.10;6.25;;;;;;;18.90;91.32;100983.91;5042353;28;20636;-42
2023/06/19 07:09:47;;;;;;;7.38;5.80;;;;;;;18.92;91.10;100990.09;5046102;28;20183;-41
2023/06/19 07:12:12;;;;;;;6.28;5.68;;;;;;;18.91;91.37;100977.53;5036627;28;20234;-44
2023/06/19 07:14:38;;;;;;;6.13;5.53;;;;;;;18.98;91.67;100982.47;5035446;28;20183;-45
2023/06/19 07:17:06;;;;;;;7.50;5.68;;;;;;;19.05;91.04;100987.38;5034256;28;20666;-48
2023/06/19 07:19:32;;;;;;;6.82;6.13;;;;;;;19.12;89.74;100982.38;5049898;22;20771;-46
2023/06/19 07:21:58;;;;;;;7.03;5.82;;;;;;;19.17;88.38;100977.47;4994587;28;20177;-47
2023/06/19 07:24:24;;;;;;;6.70;6.00;;;;;;;19.22;86.88;100980.75;4993184;28;20201;-44
2023/06/19 07:26:49;;;;;;;7.53;5.65;;;;;;;19.25;85.67;100975.09;4991996;28;20173;-44
2023/06/19 07:29:15;;;;;;;7.20;5.95;;;;;;;19.43;83.75;100969.28;4989258;28;20184;-45
2023/06/19 07:31:42;;;;;;;8.50;5.60;;;;;;;19.49;82.50;100968.84;4992667;28;20216;-45
2023/06/19 07:34:08;;;;;;;6.28;5.68;;;;;;;19.51;81.65;100975.91;4988574;28;20312;-44
2023/06/19 07:36:34;;;;;;;6.72;6.03;;;;;;;19.51;81.07;100961.44;5000514;28;20657;-42
2023/06/19 07:38:59;;;;;;;6.70;6.10;;;;;;;19.49;80.76;100968.84;5000352;28;20295;-45
2023/06/19 07:41:25;;;;;;;7.57;5.85;;;;;;;19.57;80.79;100990.91;5001995;28;20208;-44
2023/06/19 07:43:50;;;;;;;6.05;5.55;;;;;;;19.57;81.27;100996.34;5005617;28;20201;-44
2023/06/19 07:46:16;;;;;;;8.05;6.40;;;;;;;19.61;80.94;100995.09;4997026;28;20655;-43
2023/06/19 07:48:42;;;;;;;7.53;6.72;;;;;;;19.60;80.64;101001.53;5004397;28;20173;-43
2023/06/19 07:51:07;;;;;;;8.30;6.40;;;;;;;19.57;80.72;100996.34;5004855;28;20235;-45
2023/06/19 07:53:33;;;;;;;7.05;6.38;;;;;;;19.65;81.61;101007.50;4999694;28;20204;-45
2023/06/19 07:55:58;;;;;;;7.57;6.72;;;;;;;19.54;82.51;100999.25;5001508;28;20423;-46
2023/06/19 07:58:24;;;;;;;7.13;6.43;;;;;;;19.51;83.44;101003.06;4991613;28;20280;-44
2023/06/19 08:00:49;;;;;;;7.22;6.32;;;;;;;19.29;86.03;101003.78;5007118;28;20618;-43
2023/06/19 08:03:15;;;;;;;9.52;6.55;;;;;;;19.17;87.51;101018.22;5018475;28;20686;-47
2023/06/19 08:05:40;;;;;;;7.57;6.88;;;;;;;19.18;89.14;101019.97;4996675;28;20248;-46
2023/06/19 08:08:06;;;;;;;8.07;7.25;;;;;;;19.08;88.94;101019.75;5007950;28;20538;-47
2023/06/19 08:10:32;;;;;;;9.15;7.63;;;;;;;19.11;90.39;101016.81;5021876;28;20202;-45
2023/06/19 08:12:57;;;;;;;13.43;7.18;;;;;;;18.98;89.95;101020.50;4998132;28;20667;-46
2023/06/19 08:15:23;;;;;;;7.80;7.00;;;;;;;19.01;90.28;101018.44;5008280;28;20554;-45
2023/06/19 08:17:48;;;;;;;12.93;7.15;;;;;;;19.01;91.41;101020.31;4991044;28;20188;-46
2023/06/19 08:20:14;;;;;;;8.00;7.30;;;;;;;18.94;92.34;101028.00;5002501;28;20181;-46
2023/06/19 08:22:39;;;;;;;7.93;7.03;;;;;;;18.91;92.37;101010.09;5015805;28;20203;-45
2023/06/19 08:25:05;;;;;;;7.85;7.15;;;;;;;19.00;92.12;101014.00;5006159;28;20691;-45
2023/06/19 08:27:31;;;;;;;10.00;7.88;;;;;;;18.79;93.32;101016.38;4998930;28;20231;-44
2023/06/19 08:29:56;;;;;;;9.50;7.65;;;;;;;18.75;94.59;101020.25;4999000;28;20176;-46
2023/06/19 08:32:22;;;;;;;8.55;7.72;;;;;;;18.64;95.67;101012.84;4999220;28;20201;-44
2023/06/19 08:34:47;;;;;;;8.18;7.47;;;;;;;18.73;96.46;101012.19;5001762;28;20231;-46
2023/06/19 08:37:13;;;;;;;8.13;7.43;;;;;;;18.67;97.14;101009.03;5004369;28;20656;-44
2023/06/19 08:39:39;;;;;;;8.80;8.00;;;;;;;18.48;98.99;100998.59;4999520;28;20232;-46
2023/06/19 08:42:08;;;;;;;9.10;8.30;;;;;;;18.46;100.00;100987.00;5018348;28;20242;-44
2023/06/19 08:44:35;;;;;;;10.00;8.98;;;;;;;18.44;100.00;100980.81;5005722;28;20176;-45
2023/06/19 08:47:03;;;;;;;9.88;8.88;;;;;;;18.22;100.00;100984.13;5005301;28;20288;-45
2023/06/19 08:49:34;;;;;;;9.05;8.35;;;;;;;18.15;100.00;100988.19;5005948;28;20177;-42
2023/06/19 08:52:00;;;;;;;10.13;9.13;;;;;;;18.03;100.00;101000.75;5008168;28;20216;-46
2023/06/19 08:54:26;;;;;;;10.07;9.18;;;;;;;18.02;100.00;101002.59;5008415;28;20685;-46
2023/06/19 08:56:53;;;;;;;9.65;8.85;;;;;;;18.07;100.00;100991.44;5003731;28;20170;-45
2023/06/19 08:59:20;;;;;;;9.60;8.70;;;;;;;18.10;100.00;100988.50;4994441;28;20166;-44
2023/06/19 09:01:53;;;;;;;9.77;8.88;;;;;;;18.22;100.00;100989.53;4991061;28;20291;-45
2023/06/19 09:04:28;;;;;;;10.15;9.10;;;;;;;18.24;100.00;100988.47;4991678;28;20212;-47
2023/06/19 09:06:56;;;;;;;10.10;9.15;;;;;;;18.32;100.00;100990.63;4998369;28;20185;-44
2023/06/19 09:09:24;;;;;;;13.00;9.63;;;;;;;18.30;100.00;101001.59;4997362;28;20589;-48
2023/06/19 09:12:00;;;;;;;10.70;9.27;;;;;;;18.48;100.00;100991.34;5010891;28;20208;-43
2023/06/19 09:14:36;;;;;;;10.40;9.40;;;;;;;18.56;100.00;100984.50;5001715;28;20197;-45
2023/06/19 09:17:06;;;;;;;10.80;9.80;;;;;;;18.71;100.00;100972.56;4995852;28;20181;-44
2023/06/19 09:19:36;;;;;;;10.73;9.65;;;;;;;18.94;100.00;100971.84;4997708;28;20244;-44
2023/06/19 09:22:07;;;;;;;10.40;9.35;;;;;;;19.14;100.00;100969.56;4994390;28;20173;-44
2023/06/19 09:27:46;;;;;;;10.55;9.55;;;;;;;19.37;100.00;100969.72;5751410;23;20276;-48
2023/06/19 09:30:15;;;;;;;9.88;9.07;;;;;;;19.51;100.00;100966.88;5066726;28;20217;-47
2023/06/19 09:32:41;;;;;;;10.13;9.02;;;;;;;19.65;100.00;100963.13;5049477;28;20225;-46
2023/06/19 09:35:07;;;;;;;10.13;9.02;;;;;;;19.82;100.00;100967.34;5068329;28;20647;-49
2023/06/19 09:37:32;;;;;;;10.13;9.27;;;;;;;19.79;100.00;100965.75;5068229;28;20560;-52
2023/06/19 09:40:10;;;;;;;15.18;9.88;;;;;;;19.88;100.00;100962.31;5066329;28;20396;-48
2023/06/19 09:42:38;;;;;;;11.15;9.63;;;;;;;19.91;99.65;100966.66;5062947;28;20187;-48
2023/06/19 09:45:18;;;;;;;10.52;9.57;;;;;;;20.64;98.88;100960.19;5064288;28;20590;-49
2023/06/19 09:47:46;;;;;;;10.02;9.13;;;;;;;21.14;94.56;100955.28;5091157;22;20333;-42
2023/06/19 09:50:14;;;;;;;10.02;9.00;;;;;;;21.68;90.64;100953.63;5034574;28;20195;-43
2023/06/19 09:52:42;;;;;;;9.50;8.70;;;;;;;21.91;87.48;100939.91;5035182;28;20225;-41
2023/06/19 09:55:10;;;;;;;10.45;9.27;;;;;;;22.07;84.79;100940.34;5032950;28;20238;-41
2023/06/19 09:57:38;;;;;;;9.13;8.23;;;;;;;22.46;83.61;100934.38;5032492;28;20192;-42
2023/06/19 10:00:12;;;;;;;9.15;8.35;;;;;;;23.00;82.17;100942.34;5034601;28;20644;-45
2023/06/19 10:02:41;;;;;;;9.25;8.40;;;;;;;22.79;79.40;100930.53;5039842;28;20492;-41
2023/06/19 10:05:12;;;;;;;9.63;8.77;;;;;;;22.89;76.92;100927.84;5038403;28;20225;-42
2023/06/19 10:07:40;;;;;;;9.25;8.23;;;;;;;23.53;75.94;100916.63;5036348;28;20608;-41
2023/06/19 10:10:12;;;;;;;9.68;8.80;;;;;;;23.00;74.39;100916.84;5032225;28;20171;-42
2023/06/19 10:12:39;;;;;;;9.23;8.27;;;;;;;23.08;73.18;100919.78;5035616;28;20230;-42
2023/06/19 10:15:17;;;;;;;9.18;8.25;;;;;;;23.14;73.57;100911.03;5031143;28;20193;-42
2023/06/19 10:17:44;;;;;;;9.57;8.60;;;;;;;23.20;72.87;100912.38;5038373;28;20182;-42
2023/06/19 10:20:31;;;;;;;10.20;9.15;;;;;;;23.01;73.49;100903.06;5036199;28;20645;-41
2023/06/19 10:23:05;;;;;;;10.00;9.10;;;;;;;23.00;71.64;100900.47;5032794;28;20207;-44
2023/06/19 10:25:45;;;;;;;10.40;9.10;;;;;;;23.22;71.37;100885.72;5033796;28;20182;-42
2023/06/19 10:28:31;;;;;;;9.70;8.80;;;;;;;23.50;71.16;100864.06;5035299;28;20225;-42
2023/06/19 10:31:08;;;;;;;9.68;8.57;;;;;;;23.49;69.93;100881.50;5034987;28;20187;-41
2023/06/19 10:33:40;;;;;;;9.23;8.32;;;;;;;23.39;69.97;100897.88;5033486;28;20285;-43
2023/06/19 10:36:23;;;;;;;8.35;7.68;;;;;;;23.73;69.72;100887.41;5036563;28;20652;-44
2023/06/19 10:38:50;;;;;;;8.32;7.53;;;;;;;24.02;68.44;100883.84;5034972;28;20220;-42
2023/06/19 10:41:22;;;;;;;9.50;8.60;;;;;;;23.77;68.44;100875.22;5031621;28;20761;-43
2023/06/19 10:44:06;;;;;;;9.43;8.45;;;;;;;23.72;66.74;100876.59;5043400;28;20206;-41
2023/06/19 10:46:35;;;;;;;10.95;8.45;;;;;;;23.79;65.96;100880.53;5033268;28;20634;-42
2023/06/19 10:49:01;;;;;;;9.95;8.77;;;;;;;23.94;66.16;100878.22;5030873;28;20175;-43
2023/06/19 10:51:28;;;;;;;9.75;8.82;;;;;;;23.90;65.83;100874.06;5037048;28;20215;-43
2023/06/19 10:53:55;;;;;;;8.45;7.63;;;;;;;24.21;66.93;100872.88;5033985;28;20203;-42
2023/06/19 10:56:22;;;;;;;8.90;8.15;;;;;;;24.33;65.45;100867.25;5033015;28;20532;-42
2023/06/19 10:58:47;;;;;;;8.98;8.07;;;;;;;24.41;65.39;100883.81;5032616;28;20648;-42
2023/06/19 11:01:13;;;;;;;13.52;8.77;;;;;;;24.06;64.87;100877.09;5030875;28;21411;-43
2023/06/19 11:03:39;;;;;;;10.68;8.95;;;;;;;24.65;63.58;100862.28;5039872;28;20512;-42
2023/06/19 11:06:04;;;;;;;9.60;8.80;;;;;;;24.39;63.11;100859.31;5042084;28;20551;-41
2023/06/19 11:08:30;;;;;;;9.52;8.73;;;;;;;24.50;63.53;100869.25;5036144;28;20186;-43
2023/06/19 11:10:56;;;;;;;8.60;7.82;;;;;;;24.88;62.47;100861.91;5038180;28;20179;-41
2023/06/19 11:13:21;;;;;;;10.50;8.45;;;;;;;24.50;62.29;100849.22;5033712;28;20222;-42
2023/06/19 11:15:51;;;;;;;9.63;8.63;;;;;;;24.51;62.70;100851.84;5036083;28;20191;-42
2023/06/19 11:18:18;;;;;;;9.20;8.50;;;;;;;24.34;64.07;100860.78;5037826;28;20167;-42
2023/06/19 11:20:49;;;;;;;9.23;8.18;;;;;;;24.76;63.88;100872.22;5039830;28;20698;-42
2023/06/19 11:23:15;;;;;;;9.27;8.30;;;;;;;24.43;63.12;100854.41;5042500;28;20328;-42
2023/06/19 11:25:42;;;;;;;9.57;8.05;;;;;;;24.20;63.33;100862.06;5037247;28;20185;-42
2023/06/19 11:28:22;;;;;;;8.93;8.13;;;;;;;24.32;62.58;100860.91;5037012;28;20183;-42
2023/06/19 11:30:49;;;;;;;8.63;7.93;;;;;;;24.68;61.58;100850.16;5039045;28;20652;-42
2023/06/19 11:33:22;;;;;;;8.88;7.93;;;;;;;25.01;61.04;100851.44;5041531;28;20295;-41